createdAt,value
2023-12-04T00:00:01.009Z,1016.43
2023-12-04T00:01:01.018Z,1016.37
2023-12-04T00:02:00.981Z,1016.42
2023-12-04T00:03:00.931Z,1016.42
2023-12-04T00:04:01.095Z,1016.45
2023-12-04T00:05:00.975Z,1016.39
2023-12-04T00:06:00.909Z,1016.41
2023-12-04T00:07:00.928Z,1016.41
2023-12-04T00:08:00.878Z,1016.35
2023-12-04T00:09:00.878Z,1016.36
2023-12-04T00:10:00.949Z,1016.42
2023-12-04T00:11:00.897Z,1016.39
2023-12-04T00:12:00.907Z,1016.30
2023-12-04T00:13:00.827Z,1016.31
2023-12-04T00:14:00.842Z,1016.37
2023-12-04T00:15:00.781Z,1016.27
2023-12-04T00:16:00.822Z,1016.30
2023-12-04T00:17:00.780Z,1016.24
2023-12-04T00:18:00.847Z,1016.25
2023-12-04T00:19:00.878Z,1016.24
2023-12-04T00:20:00.758Z,1016.29
2023-12-04T00:21:00.767Z,1016.32
2023-12-04T00:22:00.713Z,1016.37
2023-12-04T00:23:00.695Z,1016.30
2023-12-04T00:24:00.723Z,1016.31
2023-12-04T00:25:00.727Z,1016.25
2023-12-04T00:26:00.680Z,1016.28
2023-12-04T00:27:00.647Z,1016.28
2023-12-04T00:28:00.682Z,1016.27
2023-12-04T00:29:00.606Z,1016.27
2023-12-04T00:30:00.611Z,1016.25
2023-12-04T00:31:00.633Z,1016.24
2023-12-04T00:32:00.597Z,1016.24
2023-12-04T00:33:00.653Z,1016.29
2023-12-04T00:34:00.784Z,1016.29
2023-12-04T00:35:00.618Z,1016.34
2023-12-04T00:36:00.581Z,1016.31
2023-12-04T00:37:00.576Z,1016.29
2023-12-04T00:38:00.517Z,1016.28
2023-12-04T00:39:00.488Z,1016.25
2023-12-04T00:40:00.613Z,1016.24
2023-12-04T00:41:00.477Z,1016.31
2023-12-04T00:42:00.473Z,1016.29
2023-12-04T00:43:00.488Z,1016.24
2023-12-04T00:44:00.453Z,1016.23
2023-12-04T00:45:00.419Z,1016.39
2023-12-04T00:46:00.442Z,1016.42
2023-12-04T00:47:00.416Z,1016.37
2023-12-04T00:48:00.521Z,1016.41
2023-12-04T00:49:00.502Z,1016.48
2023-12-04T00:50:00.358Z,1016.45
2023-12-04T00:51:00.339Z,1016.45
2023-12-04T00:52:00.358Z,1016.43
2023-12-04T00:53:00.324Z,1016.42
2023-12-04T00:54:00.319Z,1016.45
2023-12-04T00:55:00.353Z,1016.45
2023-12-04T00:56:00.302Z,1016.43
2023-12-04T00:57:00.275Z,1016.44
2023-12-04T00:58:00.354Z,1016.42
2023-12-04T00:59:00.255Z,1016.55
2023-12-04T01:00:00.296Z,1016.49
2023-12-04T01:01:00.260Z,1016.49
2023-12-04T01:02:00.254Z,1016.58
2023-12-04T01:03:00.249Z,1016.57
2023-12-04T01:04:00.260Z,1016.47
2023-12-04T01:05:00.291Z,1016.48
2023-12-04T01:06:00.199Z,1016.48
2023-12-04T01:07:00.225Z,1016.48
2023-12-04T01:08:00.165Z,1016.48
2023-12-04T01:09:00.209Z,1016.47
2023-12-04T01:10:00.270Z,1016.51
2023-12-04T01:11:00.113Z,1016.50
2023-12-04T01:12:00.084Z,1016.49
2023-12-04T01:13:00.114Z,1016.46
2023-12-04T01:14:00.055Z,1016.54
2023-12-04T01:15:00.042Z,1016.50
2023-12-04T01:16:00.062Z,1016.46
2023-12-04T01:17:00.017Z,1016.50
2023-12-04T01:18:00.027Z,1016.49
2023-12-04T01:19:00.037Z,1016.47
2023-12-04T01:20:00.002Z,1016.41
2023-12-04T01:20:59.976Z,1016.44
2023-12-04T01:21:59.969Z,1016.46
2023-12-04T01:22:59.946Z,1016.40
2023-12-04T01:23:59.912Z,1016.43
2023-12-04T01:24:59.972Z,1016.42
2023-12-04T01:25:59.908Z,1016.39
2023-12-04T01:26:59.879Z,1016.35
2023-12-04T01:27:59.876Z,1016.34
2023-12-04T01:28:59.881Z,1016.35
2023-12-04T01:29:59.865Z,1016.36
2023-12-04T01:30:59.862Z,1016.36
2023-12-04T01:31:59.815Z,1016.32
2023-12-04T01:32:59.866Z,1016.28
2023-12-04T01:33:59.853Z,1016.27
2023-12-04T01:34:59.798Z,1016.20
2023-12-04T01:35:59.783Z,1016.22
2023-12-04T01:36:59.808Z,1016.27
2023-12-04T01:37:59.771Z,1016.16
2023-12-04T01:38:59.761Z,1016.25
2023-12-04T01:39:59.804Z,1016.23
2023-12-04T01:40:59.702Z,1016.22
2023-12-04T01:41:59.700Z,1016.24
2023-12-04T01:42:59.746Z,1016.26
2023-12-04T01:43:59.664Z,1016.17
2023-12-04T01:44:59.655Z,1016.17
2023-12-04T01:45:59.677Z,1016.12
2023-12-04T01:46:59.658Z,1016.15
2023-12-04T01:47:59.859Z,1016.15
2023-12-04T01:48:59.708Z,1016.16
2023-12-04T01:49:59.612Z,1016.10
2023-12-04T01:50:59.622Z,1016.15
2023-12-04T01:51:59.626Z,1016.02
2023-12-04T01:52:59.558Z,1016.12
2023-12-04T01:53:59.565Z,1016.03
2023-12-04T01:54:59.568Z,1016.11
2023-12-04T01:55:59.525Z,1016.11
2023-12-04T01:56:59.530Z,1016.03
2023-12-04T01:57:59.560Z,1016.07
2023-12-04T01:58:59.502Z,1016.09
2023-12-04T01:59:59.479Z,1016.11
2023-12-04T02:00:59.480Z,1016.10
2023-12-04T02:01:59.482Z,1016.05
2023-12-04T02:02:59.468Z,1016.08
2023-12-04T02:03:59.436Z,1016.01
2023-12-04T02:04:59.462Z,1016.03
2023-12-04T02:05:59.423Z,1016.01
2023-12-04T02:06:59.403Z,1015.96
2023-12-04T02:07:59.385Z,1016.02
2023-12-04T02:08:59.385Z,1015.97
2023-12-04T02:09:59.390Z,1015.95
2023-12-04T02:10:59.339Z,1015.90
2023-12-04T02:11:59.393Z,1015.90
2023-12-04T02:12:59.318Z,1015.89
2023-12-04T02:13:59.290Z,1015.92
2023-12-04T02:14:59.304Z,1015.88
2023-12-04T02:15:59.331Z,1015.95
2023-12-04T02:16:59.256Z,1015.92
2023-12-04T02:17:59.338Z,1015.90
2023-12-04T02:18:59.307Z,1015.90
2023-12-04T02:19:59.226Z,1015.84
2023-12-04T02:20:59.220Z,1015.82
2023-12-04T02:21:59.230Z,1015.83
2023-12-04T02:22:59.191Z,1015.85
2023-12-04T02:23:59.265Z,1015.80
2023-12-04T02:24:59.203Z,1015.82
2023-12-04T02:25:59.159Z,1015.79
2023-12-04T02:26:59.141Z,1015.77
2023-12-04T02:27:59.196Z,1015.77
2023-12-04T02:28:59.120Z,1015.72
2023-12-04T02:29:59.122Z,1015.83
2023-12-04T02:30:59.177Z,1015.80
2023-12-04T02:31:59.091Z,1015.68
2023-12-04T02:32:59.112Z,1015.77
2023-12-04T02:33:59.092Z,1015.68
2023-12-04T02:34:59.053Z,1015.67
2023-12-04T02:35:59.016Z,1015.70
2023-12-04T02:36:59.032Z,1015.74
2023-12-04T02:37:59.008Z,1015.61
2023-12-04T02:38:58.975Z,1015.73
2023-12-04T02:39:58.991Z,1015.60
2023-12-04T02:40:58.978Z,1015.73
2023-12-04T02:41:58.974Z,1015.70
2023-12-04T02:42:58.969Z,1015.64
2023-12-04T02:43:58.949Z,1015.62
2023-12-04T02:44:58.912Z,1015.74
2023-12-04T02:45:58.928Z,1015.71
2023-12-04T02:46:58.877Z,1015.72
2023-12-04T02:47:58.957Z,1015.75
2023-12-04T02:48:58.930Z,1015.70
2023-12-04T02:49:58.866Z,1015.81
2023-12-04T02:50:58.855Z,1015.70
2023-12-04T02:51:58.833Z,1015.71
2023-12-04T02:52:58.805Z,1015.67
2023-12-04T02:53:58.795Z,1015.61
2023-12-04T02:54:58.850Z,1015.70
2023-12-04T02:55:58.793Z,1015.61
2023-12-04T02:56:58.754Z,1015.70
2023-12-04T02:57:58.830Z,1015.59
2023-12-04T02:58:58.719Z,1015.62
2023-12-04T02:59:58.733Z,1015.71
2023-12-04T03:00:58.744Z,1015.71
2023-12-04T03:01:58.767Z,1015.63
2023-12-04T03:02:58.734Z,1015.60
2023-12-04T03:03:58.742Z,1015.51
2023-12-04T03:04:58.663Z,1015.53
2023-12-04T03:05:58.695Z,1015.61
2023-12-04T03:06:58.657Z,1015.55
2023-12-04T03:07:58.633Z,1015.59
2023-12-04T03:08:58.605Z,1015.52
2023-12-04T03:09:58.604Z,1015.54
2023-12-04T03:10:58.632Z,1015.52
2023-12-04T03:11:58.596Z,1015.51
2023-12-04T03:12:58.612Z,1015.48
2023-12-04T03:13:58.553Z,1015.51
2023-12-04T03:14:58.546Z,1015.52
2023-12-04T03:15:58.586Z,1015.51
2023-12-04T03:16:58.518Z,1015.41
2023-12-04T03:17:58.558Z,1015.40
2023-12-04T03:18:58.534Z,1015.41
2023-12-04T03:19:58.494Z,1015.43
2023-12-04T03:20:58.450Z,1015.43
2023-12-04T03:21:58.463Z,1015.36
2023-12-04T03:22:58.429Z,1015.39
2023-12-04T03:23:58.439Z,1015.41
2023-12-04T03:24:58.438Z,1015.38
2023-12-04T03:25:58.419Z,1015.38
2023-12-04T03:26:58.373Z,1015.38
2023-12-04T03:27:58.434Z,1015.30
2023-12-04T03:28:58.371Z,1015.35
2023-12-04T03:29:58.371Z,1015.36
2023-12-04T03:30:58.384Z,1015.35
2023-12-04T03:31:58.332Z,1015.35
2023-12-04T03:32:58.327Z,1015.35
2023-12-04T03:33:58.381Z,1015.31
2023-12-04T03:34:58.299Z,1015.34
2023-12-04T03:35:58.273Z,1015.28
2023-12-04T03:36:58.283Z,1015.25
2023-12-04T03:37:58.250Z,1015.23
2023-12-04T03:38:58.256Z,1015.25
2023-12-04T03:39:58.258Z,1015.30
2023-12-04T03:40:58.214Z,1015.30
2023-12-04T03:41:58.206Z,1015.33
2023-12-04T03:42:58.208Z,1015.25
2023-12-04T03:43:58.162Z,1015.31
2023-12-04T03:44:58.157Z,1015.29
2023-12-04T03:45:58.172Z,1015.27
2023-12-04T03:46:58.134Z,1015.30
2023-12-04T03:47:58.192Z,1015.23
2023-12-04T03:48:58.198Z,1015.28
2023-12-04T03:49:58.101Z,1015.25
2023-12-04T03:50:58.111Z,1015.23
2023-12-04T03:51:58.125Z,1015.24
2023-12-04T03:52:58.058Z,1015.30
2023-12-04T03:53:58.043Z,1015.27
2023-12-04T03:54:58.082Z,1015.30
2023-12-04T03:55:58.007Z,1015.25
2023-12-04T03:56:58.012Z,1015.28
2023-12-04T03:57:58.021Z,1015.29
2023-12-04T03:58:57.971Z,1015.27
2023-12-04T03:59:57.970Z,1015.24
2023-12-04T04:00:57.979Z,1015.19
2023-12-04T04:01:57.986Z,1015.19
2023-12-04T04:02:57.953Z,1015.15
2023-12-04T04:03:57.974Z,1015.21
2023-12-04T04:04:57.887Z,1015.22
2023-12-04T04:05:57.894Z,1015.21
2023-12-04T04:06:57.943Z,1015.24
2023-12-04T04:07:57.885Z,1015.11
2023-12-04T04:08:57.841Z,1015.08
2023-12-04T04:09:57.899Z,1015.03
2023-12-04T04:10:57.808Z,1015.01
2023-12-04T04:11:57.828Z,1014.98
2023-12-04T04:12:57.849Z,1014.96
2023-12-04T04:13:57.803Z,1014.96
2023-12-04T04:14:57.773Z,1014.97
2023-12-04T04:15:57.791Z,1014.88
2023-12-04T04:16:57.745Z,1014.88
2023-12-04T04:17:57.794Z,1014.93
2023-12-04T04:18:57.797Z,1014.86
2023-12-04T04:19:57.703Z,1014.84
2023-12-04T04:20:57.707Z,1014.91
2023-12-04T04:21:57.717Z,1014.92
2023-12-04T04:22:57.699Z,1014.88
2023-12-04T04:23:57.668Z,1014.96
2023-12-04T04:24:58.436Z,1014.92
2023-12-04T04:25:57.638Z,1014.94
2023-12-04T04:26:57.621Z,1014.98
2023-12-04T04:27:57.658Z,1014.93
2023-12-04T04:28:57.608Z,1015.05
2023-12-04T04:29:57.597Z,1015.02
2023-12-04T04:30:57.606Z,1014.97
2023-12-04T04:31:57.580Z,1014.97
2023-12-04T04:32:57.610Z,1014.98
2023-12-04T04:33:57.636Z,1014.99
2023-12-04T04:34:57.557Z,1015.03
2023-12-04T04:35:57.521Z,1015.03
2023-12-04T04:36:57.527Z,1014.98
2023-12-04T04:37:57.480Z,1014.95
2023-12-04T04:38:57.465Z,1014.99
2023-12-04T04:39:57.577Z,1014.90
2023-12-04T04:40:57.460Z,1014.92
2023-12-04T04:41:57.446Z,1014.95
2023-12-04T04:42:57.488Z,1014.97
2023-12-04T04:43:57.421Z,1014.91
2023-12-04T04:44:57.412Z,1014.89
2023-12-04T04:45:57.425Z,1014.91
2023-12-04T04:46:57.419Z,1014.93
2023-12-04T04:47:57.380Z,1014.94
2023-12-04T04:48:57.388Z,1014.93
2023-12-04T04:49:57.400Z,1014.94
2023-12-04T04:50:57.335Z,1014.95
2023-12-04T04:51:57.346Z,1014.93
2023-12-04T04:52:57.289Z,1014.92
2023-12-04T04:53:57.281Z,1014.87
2023-12-04T04:54:57.301Z,1014.92
2023-12-04T04:55:57.277Z,1014.92
2023-12-04T04:56:57.274Z,1014.88
2023-12-04T04:57:57.287Z,1014.87
2023-12-04T04:58:57.258Z,1014.91
2023-12-04T04:59:57.199Z,1014.85
2023-12-04T05:00:57.243Z,1014.88
2023-12-04T05:01:57.232Z,1014.83
2023-12-04T05:02:57.232Z,1014.89
2023-12-04T05:03:57.249Z,1014.90
2023-12-04T05:04:57.203Z,1014.88
2023-12-04T05:05:57.184Z,1014.88
2023-12-04T05:06:57.181Z,1014.85
2023-12-04T05:07:57.130Z,1014.91
2023-12-04T05:08:57.083Z,1014.83
2023-12-04T05:09:57.106Z,1014.88
2023-12-04T05:10:57.080Z,1014.87
2023-12-04T05:11:57.055Z,1014.83
2023-12-04T05:12:57.066Z,1014.76
2023-12-04T05:13:57.026Z,1014.75
2023-12-04T05:14:57.028Z,1014.79
2023-12-04T05:15:57.027Z,1014.80
2023-12-04T05:16:57.002Z,1014.77
2023-12-04T05:17:56.995Z,1014.76
2023-12-04T05:18:57.030Z,1014.79
2023-12-04T05:19:57.025Z,1014.84
2023-12-04T05:20:56.947Z,1014.83
2023-12-04T05:21:57.001Z,1014.80
2023-12-04T05:22:56.910Z,1014.76
2023-12-04T05:23:56.888Z,1014.80
2023-12-04T05:24:56.945Z,1014.72
2023-12-04T05:25:56.865Z,1014.73
2023-12-04T05:26:56.886Z,1014.68
2023-12-04T05:27:56.860Z,1014.66
2023-12-04T05:28:56.827Z,1014.70
2023-12-04T05:29:56.841Z,1014.65
2023-12-04T05:30:56.856Z,1014.62
2023-12-04T05:31:56.800Z,1014.59
2023-12-04T05:32:56.852Z,1014.67
2023-12-04T05:33:56.883Z,1014.55
2023-12-04T05:34:56.758Z,1014.59
2023-12-04T05:35:56.776Z,1014.56
2023-12-04T05:36:56.793Z,1014.60
2023-12-04T05:37:56.714Z,1014.60
2023-12-04T05:38:57.989Z,1014.57
2023-12-04T05:39:56.736Z,1014.56
2023-12-04T05:40:56.694Z,1014.60
2023-12-04T05:41:56.690Z,1014.50
2023-12-04T05:42:56.711Z,1014.57
2023-12-04T05:43:56.644Z,1014.51
2023-12-04T05:44:56.798Z,1014.57
2023-12-04T05:45:56.643Z,1014.58
2023-12-04T05:46:56.615Z,1014.53
2023-12-04T05:47:56.609Z,1014.56
2023-12-04T05:48:56.683Z,1014.52
2023-12-04T05:49:56.658Z,1014.55
2023-12-04T05:50:56.574Z,1014.53
2023-12-04T05:51:56.598Z,1014.49
2023-12-04T05:52:56.541Z,1014.51
2023-12-04T05:53:56.521Z,1014.50
2023-12-04T05:54:56.596Z,1014.48
2023-12-04T05:55:56.496Z,1014.49
2023-12-04T05:56:56.503Z,1014.45
2023-12-04T05:57:56.516Z,1014.48
2023-12-04T05:58:56.506Z,1014.55
2023-12-04T05:59:56.468Z,1014.52
2023-12-04T06:00:56.521Z,1014.49
2023-12-04T06:01:56.492Z,1014.47
2023-12-04T06:02:56.504Z,1014.43
2023-12-04T06:03:56.452Z,1014.48
2023-12-04T06:04:56.436Z,1014.46
2023-12-04T06:05:58.433Z,1014.47
2023-12-04T06:06:56.402Z,1014.43
2023-12-04T06:07:56.395Z,1014.42
2023-12-04T06:08:56.356Z,1014.38
2023-12-04T06:09:56.364Z,1014.40
2023-12-04T06:10:56.320Z,1014.37
2023-12-04T06:11:56.373Z,1014.36
2023-12-04T06:12:56.311Z,1014.34
2023-12-04T06:13:56.381Z,1014.38
2023-12-04T06:14:56.276Z,1014.37
2023-12-04T06:15:56.327Z,1014.37
2023-12-04T06:16:56.248Z,1014.32
2023-12-04T06:17:56.285Z,1014.34
2023-12-04T06:18:56.299Z,1014.35
2023-12-04T06:19:56.228Z,1014.30
2023-12-04T06:20:56.224Z,1014.37
2023-12-04T06:21:56.201Z,1014.34
2023-12-04T06:22:56.180Z,1014.34
2023-12-04T06:23:56.153Z,1014.31
2023-12-04T06:24:56.182Z,1014.33
2023-12-04T06:25:56.145Z,1014.35
2023-12-04T06:26:56.133Z,1014.31
2023-12-04T06:27:56.156Z,1014.36
2023-12-04T06:28:56.105Z,1014.36
2023-12-04T06:29:56.090Z,1014.28
2023-12-04T06:30:56.105Z,1014.34
2023-12-04T06:31:56.052Z,1014.36
2023-12-04T06:32:56.108Z,1014.29
2023-12-04T06:33:56.121Z,1014.28
2023-12-04T06:34:56.068Z,1014.31
2023-12-04T06:35:56.028Z,1014.33
2023-12-04T06:36:56.025Z,1014.34
2023-12-04T06:37:56.047Z,1014.28
2023-12-04T06:38:55.988Z,1014.28
2023-12-04T06:39:55.979Z,1014.24
2023-12-04T06:40:55.934Z,1014.31
2023-12-04T06:41:55.949Z,1014.35
2023-12-04T06:42:56.022Z,1014.30
2023-12-04T06:43:55.910Z,1014.27
2023-12-04T06:44:56.052Z,1014.31
2023-12-04T06:45:55.914Z,1014.28
2023-12-04T06:46:55.910Z,1014.22
2023-12-04T06:47:55.889Z,1014.28
2023-12-04T06:48:55.937Z,1014.26
2023-12-04T06:49:55.831Z,1014.26
2023-12-04T06:50:55.820Z,1014.22
2023-12-04T06:51:55.849Z,1014.25
2023-12-04T06:52:55.815Z,1014.30
2023-12-04T06:53:55.786Z,1014.29
2023-12-04T06:54:55.850Z,1014.30
2023-12-04T06:55:55.768Z,1014.30
2023-12-04T06:56:55.763Z,1014.25
2023-12-04T06:57:55.772Z,1014.25
2023-12-04T06:58:55.771Z,1014.30
2023-12-04T06:59:55.701Z,1014.31
2023-12-04T07:00:55.749Z,1014.22
2023-12-04T07:01:55.730Z,1014.26
2023-12-04T07:02:55.705Z,1014.26
2023-12-04T07:03:55.741Z,1014.32
2023-12-04T07:04:55.715Z,1014.28
2023-12-04T07:05:55.717Z,1014.16
2023-12-04T07:06:55.747Z,1014.19
2023-12-04T07:07:55.646Z,1014.21
2023-12-04T07:08:55.643Z,1014.10
2023-12-04T07:09:55.655Z,1014.08
2023-12-04T07:10:55.587Z,1014.05
2023-12-04T07:11:55.667Z,1014.05
2023-12-04T07:12:55.580Z,1014.10
2023-12-04T07:13:55.542Z,1014.08
2023-12-04T07:14:55.538Z,1014.00
2023-12-04T07:15:55.557Z,1013.96
2023-12-04T07:16:55.491Z,1014.00
2023-12-04T07:17:57.446Z,1013.94
2023-12-04T07:18:55.554Z,1013.94
2023-12-04T07:19:55.488Z,1013.86
2023-12-04T07:20:55.442Z,1013.91
2023-12-04T07:21:55.474Z,1013.83
2023-12-04T07:22:55.437Z,1013.82
2023-12-04T07:23:55.396Z,1013.74
2023-12-04T07:24:55.444Z,1013.81
2023-12-04T07:25:55.404Z,1013.81
2023-12-04T07:26:55.384Z,1013.75
2023-12-04T07:27:55.398Z,1013.73
2023-12-04T07:28:55.337Z,1013.82
2023-12-04T07:29:55.355Z,1013.78
2023-12-04T07:30:55.349Z,1013.77
2023-12-04T07:31:55.318Z,1013.67
2023-12-04T07:32:55.332Z,1013.72
2023-12-04T07:33:55.454Z,1013.76
2023-12-04T07:34:55.492Z,1013.72
2023-12-04T07:35:55.266Z,1013.72
2023-12-04T07:36:55.272Z,1013.75
2023-12-04T07:37:55.234Z,1013.78
2023-12-04T07:38:55.306Z,1013.82
2023-12-04T07:39:55.252Z,1013.83
2023-12-04T07:40:55.196Z,1013.83
2023-12-04T07:41:55.210Z,1013.86
2023-12-04T07:42:55.210Z,1013.85
2023-12-04T07:43:55.159Z,1013.88
2023-12-04T07:44:55.150Z,1013.86
2023-12-04T07:45:55.186Z,1013.80
2023-12-04T07:46:55.137Z,1013.83
2023-12-04T07:47:55.139Z,1013.87
2023-12-04T07:48:56.518Z,1013.79
2023-12-04T07:49:55.105Z,1013.78
2023-12-04T07:50:55.123Z,1013.78
2023-12-04T07:51:55.100Z,1013.84
2023-12-04T07:52:55.053Z,1013.80
2023-12-04T07:53:55.111Z,1013.72
2023-12-04T07:54:55.027Z,1013.76
2023-12-04T07:55:55.380Z,1013.76
2023-12-04T07:56:55.118Z,1013.80
2023-12-04T07:57:55.013Z,1013.77
2023-12-04T07:58:55.016Z,1013.72
2023-12-04T07:59:55.369Z,1013.78
2023-12-04T08:00:55.109Z,1013.78
2023-12-04T08:01:54.946Z,1013.74
2023-12-04T08:02:54.941Z,1013.69
2023-12-04T08:03:55.332Z,1013.68
2023-12-04T08:04:54.956Z,1013.70
2023-12-04T08:05:55.124Z,1013.74
2023-12-04T08:06:54.933Z,1013.75
2023-12-04T08:07:54.845Z,1013.81
2023-12-04T08:08:54.867Z,1013.78
2023-12-04T08:09:54.852Z,1013.81
2023-12-04T08:10:54.848Z,1013.79
2023-12-04T08:11:57.256Z,1013.78
2023-12-04T08:12:54.820Z,1013.73
2023-12-04T08:13:54.816Z,1013.70
2023-12-04T08:14:54.789Z,1013.68
2023-12-04T08:15:54.775Z,1013.75
2023-12-04T08:16:54.737Z,1013.74
2023-12-04T08:17:54.793Z,1013.68
2023-12-04T08:18:54.904Z,1013.69
2023-12-04T08:19:54.855Z,1013.72
2023-12-04T08:20:54.805Z,1013.72
2023-12-04T08:21:54.772Z,1013.70
2023-12-04T08:22:54.679Z,1013.71
2023-12-04T08:23:54.654Z,1013.65
2023-12-04T08:24:54.754Z,1013.63
2023-12-04T08:25:54.636Z,1013.65
2023-12-04T08:26:54.646Z,1013.61
2023-12-04T08:27:54.620Z,1013.60
2023-12-04T08:28:54.604Z,1013.65
2023-12-04T08:29:54.603Z,1013.62
2023-12-04T08:30:54.597Z,1013.70
2023-12-04T08:31:54.569Z,1013.66
2023-12-04T08:32:54.643Z,1013.58
2023-12-04T08:33:54.557Z,1013.59
2023-12-04T08:34:54.526Z,1013.62
2023-12-04T08:35:54.537Z,1013.63
2023-12-04T08:36:54.609Z,1013.69
2023-12-04T08:37:54.661Z,1013.61
2023-12-04T08:38:54.534Z,1013.59
2023-12-04T08:39:56.209Z,1013.57
2023-12-04T08:40:54.462Z,1013.61
2023-12-04T08:42:01.552Z,1013.58
2023-12-04T08:42:54.551Z,1013.62
2023-12-04T08:43:54.445Z,1013.51
2023-12-04T08:44:54.414Z,1013.57
2023-12-04T08:45:54.575Z,1013.58
2023-12-04T08:46:54.449Z,1013.62
2023-12-04T08:47:54.652Z,1013.60
2023-12-04T08:48:54.466Z,1013.57
2023-12-04T08:49:54.356Z,1013.61
2023-12-04T08:50:54.432Z,1013.59
2023-12-04T08:51:54.358Z,1013.61
2023-12-04T08:52:54.312Z,1013.60
2023-12-04T08:53:54.562Z,1013.63
2023-12-04T08:54:54.269Z,1013.63
2023-12-04T08:55:54.373Z,1013.57
2023-12-04T08:56:54.319Z,1013.62
2023-12-04T08:57:54.305Z,1013.65
2023-12-04T08:58:54.308Z,1013.59
2023-12-04T08:59:54.342Z,1013.52
2023-12-04T09:00:54.220Z,1013.59
2023-12-04T09:01:54.217Z,1013.59
2023-12-04T09:03:02.369Z,1013.57
2023-12-04T09:03:54.705Z,1013.52
2023-12-04T09:04:54.226Z,1013.55
2023-12-04T09:05:54.250Z,1013.48
2023-12-04T09:09:54.137Z,1013.43
2023-12-04T09:11:04.028Z,1013.50
2023-12-04T09:11:54.066Z,1013.44
2023-12-04T09:12:54.030Z,1013.54
2023-12-04T09:13:54.051Z,1013.48
2023-12-04T09:14:54.012Z,1013.56
2023-12-04T09:15:54.179Z,1013.53
2023-12-04T09:16:54.014Z,1013.51
2023-12-04T09:17:54.009Z,1013.58
2023-12-04T09:18:54.033Z,1013.60
2023-12-04T09:19:54.283Z,1013.58
2023-12-04T09:20:53.974Z,1013.65
2023-12-04T09:21:59.879Z,1013.51
2023-12-04T09:23:00.505Z,1013.55
2023-12-04T09:23:54.188Z,1013.59
2023-12-04T09:24:53.934Z,1013.55
2023-12-04T09:25:53.868Z,1013.51
2023-12-04T09:26:53.853Z,1013.59
2023-12-04T09:27:53.898Z,1013.57
2023-12-04T09:28:53.846Z,1013.56
2023-12-04T09:29:53.829Z,1013.53
2023-12-04T09:30:53.902Z,1013.51
2023-12-04T09:31:54.086Z,1013.46
2023-12-04T09:32:53.825Z,1013.56
2023-12-04T09:33:54.237Z,1013.49
2023-12-04T09:34:53.767Z,1013.49
2023-12-04T09:35:54.089Z,1013.58
2023-12-04T09:36:55.572Z,1013.48
2023-12-04T09:37:53.748Z,1013.40
2023-12-04T09:38:53.819Z,1013.51
2023-12-04T09:39:53.689Z,1013.43
2023-12-04T09:40:53.688Z,1013.40
2023-12-04T09:41:53.676Z,1013.40
2023-12-04T09:42:53.774Z,1013.41
2023-12-04T09:43:54.101Z,1013.40
2023-12-04T09:44:53.740Z,1013.37
2023-12-04T09:45:53.997Z,1013.40
2023-12-04T09:46:53.617Z,1013.38
2023-12-04T09:47:53.869Z,1013.43
2023-12-04T09:48:53.778Z,1013.35
2023-12-04T09:49:53.741Z,1013.37
2023-12-04T09:50:53.556Z,1013.38
2023-12-04T09:51:53.577Z,1013.32
2023-12-04T09:52:53.722Z,1013.36
2023-12-04T09:53:53.888Z,1013.28
2023-12-04T09:54:53.520Z,1013.27
2023-12-04T09:55:53.631Z,1013.27
2023-12-04T09:56:53.562Z,1013.26
2023-12-04T09:57:53.480Z,1013.27
2023-12-04T09:58:53.638Z,1013.27
2023-12-04T09:59:53.506Z,1013.17
2023-12-04T10:00:53.424Z,1013.18
2023-12-04T10:01:53.718Z,1013.23
2023-12-04T10:02:53.531Z,1013.19
2023-12-04T10:03:53.513Z,1013.20
2023-12-04T10:04:53.582Z,1013.22
2023-12-04T10:05:53.383Z,1013.15
2023-12-04T10:06:53.457Z,1013.15
2023-12-04T10:07:53.647Z,1013.11
2023-12-04T10:08:53.387Z,1013.16
2023-12-04T10:09:53.421Z,1013.07
2023-12-04T10:10:53.309Z,1013.12
2023-12-04T10:11:53.471Z,1013.14
2023-12-04T10:12:53.508Z,1013.13
2023-12-04T10:13:58.367Z,1013.20
2023-12-04T10:14:53.700Z,1013.15
2023-12-04T10:15:53.377Z,1013.16
2023-12-04T10:16:53.260Z,1013.15
2023-12-04T10:17:53.333Z,1013.09
2023-12-04T10:18:53.615Z,1013.02
2023-12-04T10:19:53.246Z,1013.05
2023-12-04T10:20:53.176Z,1013.05
2023-12-04T10:21:53.287Z,1013.00
2023-12-04T10:22:53.158Z,1012.95
2023-12-04T10:23:53.142Z,1012.95
2023-12-04T10:24:53.166Z,1013.00
2023-12-04T10:25:53.119Z,1012.99
2023-12-04T10:26:53.119Z,1012.95
2023-12-04T10:27:53.222Z,1013.00
2023-12-04T10:28:53.081Z,1012.95
2023-12-04T10:29:53.073Z,1012.93
2023-12-04T10:30:53.073Z,1012.96
2023-12-04T10:31:53.044Z,1012.89
2023-12-04T10:32:53.103Z,1012.91
2023-12-04T10:33:53.121Z,1012.90
2023-12-04T10:34:53.020Z,1012.94
2023-12-04T10:35:53.024Z,1012.90
2023-12-04T10:36:52.968Z,1012.89
2023-12-04T10:37:52.981Z,1012.79
2023-12-04T10:38:52.997Z,1012.86
2023-12-04T10:39:53.080Z,1012.87
2023-12-04T10:40:52.944Z,1012.86
2023-12-04T10:41:52.934Z,1012.85
2023-12-04T10:42:52.920Z,1012.87
2023-12-04T10:43:57.727Z,1012.85
2023-12-04T10:44:52.892Z,1012.80
2023-12-04T10:45:52.878Z,1012.83
2023-12-04T10:46:52.879Z,1012.75
2023-12-04T10:47:52.944Z,1012.78
2023-12-04T10:48:52.948Z,1012.77
2023-12-04T10:49:52.971Z,1012.73
2023-12-04T10:50:52.796Z,1012.66
2023-12-04T10:51:52.810Z,1012.62
2023-12-04T10:52:52.788Z,1012.61
2023-12-04T10:53:52.792Z,1012.66
2023-12-04T10:54:52.821Z,1012.52
2023-12-04T10:55:52.747Z,1012.56
2023-12-04T10:56:52.756Z,1012.55
2023-12-04T10:57:52.735Z,1012.62
2023-12-04T10:58:52.704Z,1012.51
2023-12-04T10:59:52.717Z,1012.52
2023-12-04T11:00:52.724Z,1012.54
2023-12-04T11:01:52.808Z,1012.49
2023-12-04T11:02:52.734Z,1012.42
2023-12-04T11:03:52.722Z,1012.48
2023-12-04T11:04:52.698Z,1012.42
2023-12-04T11:05:52.623Z,1012.42
2023-12-04T11:06:52.623Z,1012.40
2023-12-04T11:08:13.782Z,1012.42
2023-12-04T11:08:52.568Z,1012.40
2023-12-04T11:09:52.557Z,1012.38
2023-12-04T11:10:52.555Z,1012.36
2023-12-04T11:11:52.589Z,1012.32
2023-12-04T11:12:52.574Z,1012.27
2023-12-04T11:13:52.541Z,1012.33
2023-12-04T11:14:52.506Z,1012.30
2023-12-04T11:15:52.566Z,1012.33
2023-12-04T11:16:52.501Z,1012.27
2023-12-04T11:17:52.512Z,1012.26
2023-12-04T11:18:52.563Z,1012.29
2023-12-04T11:19:52.529Z,1012.28
2023-12-04T11:20:52.414Z,1012.31
2023-12-04T11:21:52.434Z,1012.27
2023-12-04T11:22:52.386Z,1012.29
2023-12-04T11:23:52.390Z,1012.32
2023-12-04T11:24:52.390Z,1012.28
2023-12-04T11:25:52.379Z,1012.26
2023-12-04T11:26:52.352Z,1012.19
2023-12-04T11:27:52.341Z,1012.24
2023-12-04T11:28:52.309Z,1012.14
2023-12-04T11:29:52.320Z,1012.18
2023-12-04T11:30:52.351Z,1012.16
2023-12-04T11:31:52.306Z,1012.17
2023-12-04T11:32:53.071Z,1012.11
2023-12-04T11:33:52.376Z,1012.13
2023-12-04T11:34:52.286Z,1012.15
2023-12-04T11:35:52.259Z,1012.04
2023-12-04T11:36:52.288Z,1012.09
2023-12-04T11:37:52.221Z,1012.13
2023-12-04T11:38:52.207Z,1012.11
2023-12-04T11:39:52.314Z,1012.05
2023-12-04T11:40:52.167Z,1012.13
2023-12-04T11:41:52.158Z,1012.16
2023-12-04T11:42:52.189Z,1012.07
2023-12-04T11:43:52.128Z,1012.09
2023-12-04T11:44:52.131Z,1012.00
2023-12-04T11:45:52.119Z,1012.04
2023-12-04T11:46:52.082Z,1012.09
2023-12-04T11:47:52.189Z,1012.08
2023-12-04T11:48:52.168Z,1012.16
2023-12-04T11:49:52.085Z,1012.05
2023-12-04T11:50:52.044Z,1012.07
2023-12-04T11:51:52.620Z,1012.07
2023-12-04T11:52:52.068Z,1012.03
2023-12-04T11:53:51.990Z,1012.06
2023-12-04T11:54:51.995Z,1012.07
2023-12-04T11:55:51.981Z,1012.04
2023-12-04T11:56:51.964Z,1012.01
2023-12-04T11:57:51.985Z,1012.02
2023-12-04T11:58:51.934Z,1011.88
2023-12-04T11:59:51.962Z,1011.84
2023-12-04T12:00:51.966Z,1011.89
2023-12-04T12:01:51.978Z,1011.84
2023-12-04T12:03:15.362Z,1011.93
2023-12-04T12:03:52.313Z,1011.92
2023-12-04T12:04:52.310Z,1011.91
2023-12-04T12:05:53.073Z,1011.85
2023-12-04T12:06:52.116Z,1011.88
2023-12-04T12:07:51.810Z,1011.83